Time;durP1;ratioP1;P1;durP2;ratioP2;P2;SDS_P1;SDS_P2;PMS_P1;PMS_P2;Temp;Humidity;BMP_temperature;BMP_pressure;BME280_temperature;BME280_humidity;BME280_pressure;Samples;Min_cycle;Max_cycle;Signal;HPM_P1;HPM_P2
2022/03/14 00:02:05;;;;;;;15.10;8.97;;;2.90;51.90;;;;;;6066740;23;20162;-91
2022/03/14 00:04:37;;;;;;;14.17;8.13;;;2.80;52.80;;;;;;6066651;23;20188;-91
2022/03/14 00:07:04;;;;;;;17.57;9.13;;;2.60;53.70;;;;;;6068582;23;20137;-91
2022/03/14 00:09:30;;;;;;;16.67;10.23;;;2.50;53.70;;;;;;6066821;23;20162;-91
2022/03/14 00:11:56;;;;;;;15.93;10.23;;;2.50;53.70;;;;;;6066766;23;20157;-91
2022/03/14 00:14:25;;;;;;;13.83;9.53;;;2.40;54.10;;;;;;6067118;23;20187;-91
2022/03/14 00:16:51;;;;;;;19.07;9.23;;;2.30;54.50;;;;;;6067144;23;20195;-91
2022/03/14 00:19:18;;;;;;;13.97;8.80;;;2.30;54.50;;;;;;6066402;23;20167;-90
2022/03/14 00:21:45;;;;;;;17.60;9.13;;;2.20;54.80;;;;;;6066656;23;20229;-90
2022/03/14 00:24:11;;;;;;;14.83;8.90;;;2.20;54.90;;;;;;6066445;23;20274;-90
2022/03/14 00:26:37;;;;;;;16.67;10.33;;;2.20;54.80;;;;;;6067633;23;20165;-90
2022/03/14 00:29:03;;;;;;;17.43;9.60;;;2.30;54.80;;;;;;6066685;23;20612;-91
2022/03/14 00:31:29;;;;;;;17.43;10.70;;;2.10;55.40;;;;;;6066716;23;20161;-90
2022/03/14 00:33:54;;;;;;;15.37;9.63;;;2.10;55.60;;;;;;6067236;23;20211;-91
2022/03/14 00:36:20;;;;;;;14.60;9.23;;;2.10;55.40;;;;;;6066616;23;20167;-90
2022/03/14 00:38:46;;;;;;;14.23;9.77;;;2.10;55.50;;;;;;6066709;23;20160;-91
2022/03/14 00:41:12;;;;;;;18.30;9.77;;;2.10;55.60;;;;;;6066762;23;20164;-91
2022/03/14 00:43:39;;;;;;;14.27;9.37;;;2.00;56.00;;;;;;6066823;23;20250;-91
2022/03/14 00:46:04;;;;;;;15.83;9.97;;;2.00;55.80;;;;;;6066746;23;20164;-90
2022/03/14 00:48:34;;;;;;;18.83;9.63;;;2.00;55.70;;;;;;6067682;23;20467;-91
2022/03/14 00:51:00;;;;;;;17.10;10.07;;;2.10;55.70;;;;;;6066978;23;20160;-91
2022/03/14 00:53:27;;;;;;;15.20;9.00;;;2.00;56.00;;;;;;6067030;23;20206;-91
2022/03/14 00:55:52;;;;;;;14.33;8.87;;;2.10;55.60;;;;;;6067462;23;20496;-91
2022/03/14 00:58:18;;;;;;;14.50;9.20;;;2.10;55.60;;;;;;6067335;23;20159;-91
2022/03/14 01:00:44;;;;;;;17.07;9.20;;;2.00;55.80;;;;;;6066953;23;20514;-91
2022/03/14 01:03:09;;;;;;;15.70;8.83;;;2.10;55.60;;;;;;6066896;23;20184;-91
2022/03/14 01:05:35;;;;;;;14.37;8.27;;;2.20;55.20;;;;;;6066722;23;20162;-91
2022/03/14 01:08:01;;;;;;;15.63;8.90;;;2.30;54.80;;;;;;6067961;23;20162;-91
2022/03/14 01:10:26;;;;;;;15.40;8.87;;;2.50;54.50;;;;;;6066514;23;20604;-91
2022/03/14 01:12:52;;;;;;;14.83;8.40;;;2.60;54.00;;;;;;6066506;23;20526;-91
2022/03/14 01:15:18;;;;;;;11.57;8.03;;;2.60;53.90;;;;;;6067687;23;20226;-91
2022/03/14 01:17:44;;;;;;;14.70;8.87;;;2.60;53.70;;;;;;6066872;23;20193;-91
2022/03/14 01:20:10;;;;;;;18.67;8.50;;;2.60;53.80;;;;;;6066787;23;20157;-90
2022/03/14 01:22:38;;;;;;;12.80;8.60;;;2.70;53.40;;;;;;6067545;23;20180;-90
2022/03/14 01:25:04;;;;;;;14.57;8.23;;;2.70;53.20;;;;;;6066536;23;20752;-90
2022/03/14 01:27:30;;;;;;;11.30;7.87;;;2.80;53.30;;;;;;6067059;23;20155;-91
2022/03/14 01:29:55;;;;;;;12.80;8.20;;;2.70;53.30;;;;;;6066711;23;20163;-90
2022/03/14 01:32:21;;;;;;;13.63;7.90;;;2.80;52.90;;;;;;6068270;23;20166;-91
2022/03/14 01:34:47;;;;;;;14.17;8.00;;;2.90;52.70;;;;;;6067937;23;20208;-90
2022/03/14 01:37:12;;;;;;;14.03;7.73;;;2.90;52.30;;;;;;6068145;23;20160;-90
2022/03/14 01:39:38;;;;;;;14.10;8.57;;;2.90;52.50;;;;;;6068948;23;20159;-90
2022/03/14 01:42:04;;;;;;;13.63;7.77;;;2.80;52.60;;;;;;6067883;23;20258;-90
2022/03/14 01:44:30;;;;;;;9.60;7.57;;;2.90;52.00;;;;;;6067914;23;20286;-91
2022/03/14 01:46:56;;;;;;;11.90;8.13;;;2.90;52.10;;;;;;6068273;23;20161;-90
2022/03/14 01:49:22;;;;;;;14.70;7.83;;;2.80;52.30;;;;;;6067923;23;20246;-91
2022/03/14 01:51:52;;;;;;;14.70;8.07;;;2.80;52.60;;;;;;6067853;23;20244;-90
2022/03/14 01:54:18;;;;;;;17.73;7.60;;;2.80;52.70;;;;;;6069691;23;20172;-90
2022/03/14 01:56:45;;;;;;;14.53;8.13;;;2.80;52.90;;;;;;6069628;23;20236;-91
2022/03/14 01:59:10;;;;;;;13.73;7.80;;;2.80;52.50;;;;;;6067800;23;20610;-91
2022/03/14 02:01:36;;;;;;;16.10;8.00;;;2.80;53.00;;;;;;6067938;23;20244;-91
2022/03/14 02:04:02;;;;;;;11.67;7.83;;;2.70;53.00;;;;;;6067510;23;20221;-90
2022/03/14 02:06:28;;;;;;;15.40;8.83;;;2.80;52.70;;;;;;6069274;23;20150;-91
2022/03/14 02:08:54;;;;;;;11.77;7.57;;;2.80;52.50;;;;;;6067706;23;20185;-91
2022/03/14 02:11:20;;;;;;;14.83;8.10;;;2.90;51.90;;;;;;6068056;23;20243;-90
2022/03/14 02:13:46;;;;;;;12.43;8.03;;;3.00;52.10;;;;;;6067621;23;20642;-90
2022/03/14 02:16:11;;;;;;;13.17;7.07;;;3.00;52.00;;;;;;6067607;23;20225;-91
2022/03/14 02:18:37;;;;;;;12.00;7.50;;;3.20;51.30;;;;;;6068422;23;20162;-90
2022/03/14 02:21:03;;;;;;;14.10;7.40;;;3.20;51.00;;;;;;6067716;23;20638;-90
2022/03/14 02:23:28;;;;;;;12.93;7.40;;;3.30;51.10;;;;;;6067886;23;20200;-90
2022/03/14 02:25:55;;;;;;;18.73;8.07;;;3.30;51.10;;;;;;6067683;23;20500;-91
2022/03/14 02:28:22;;;;;;;12.03;7.40;;;3.30;50.70;;;;;;6067593;23;20158;-90
2022/03/14 02:30:51;;;;;;;13.43;7.57;;;3.30;50.90;;;;;;6067487;23;20158;-90
2022/03/14 02:33:16;;;;;;;11.23;7.53;;;3.30;50.90;;;;;;6067423;23;20177;-90
2022/03/14 02:35:42;;;;;;;11.67;7.70;;;3.40;50.70;;;;;;6068544;23;20163;-90
2022/03/14 02:38:11;;;;;;;14.17;7.60;;;3.40;50.50;;;;;;6069352;23;20216;-90
2022/03/14 02:40:39;;;;;;;10.97;7.67;;;3.50;50.40;;;;;;6067437;23;20171;-90
2022/03/14 02:43:05;;;;;;;13.67;7.80;;;3.50;50.40;;;;;;6067227;23;20221;-91
2022/03/14 02:45:32;;;;;;;15.93;8.47;;;3.50;50.10;;;;;;6067469;23;20159;-91
2022/03/14 02:47:58;;;;;;;12.90;7.73;;;3.50;50.30;;;;;;6067362;23;20155;-91
2022/03/14 02:50:23;;;;;;;14.27;7.83;;;3.40;50.20;;;;;;6067307;23;20170;-91
2022/03/14 02:52:49;;;;;;;13.67;8.17;;;3.40;50.70;;;;;;6067273;23;20603;-91
2022/03/14 02:55:17;;;;;;;12.33;7.83;;;3.30;50.60;;;;;;6067340;23;20158;-91
2022/03/14 02:57:43;;;;;;;13.80;8.03;;;3.30;51.00;;;;;;6067332;23;20672;-91
2022/03/14 03:00:10;;;;;;;11.50;8.00;;;3.30;51.50;;;;;;6067317;23;20159;-91
2022/03/14 03:02:37;;;;;;;13.67;8.13;;;3.30;51.30;;;;;;6068106;23;20229;-91
2022/03/14 03:05:05;;;;;;;12.20;8.43;;;3.30;51.20;;;;;;6067616;23;20192;-91
2022/03/14 03:07:31;;;;;;;11.70;8.27;;;3.20;51.60;;;;;;6067322;23;20157;-91
2022/03/14 03:09:57;;;;;;;13.10;8.37;;;3.10;52.00;;;;;;6067148;23;20184;-91
2022/03/14 03:12:25;;;;;;;14.57;8.20;;;3.00;52.40;;;;;;6068708;23;20204;-91
2022/03/14 03:14:51;;;;;;;10.93;7.93;;;2.90;52.60;;;;;;6067136;23;20191;-91
2022/03/14 03:17:16;;;;;;;14.93;8.17;;;2.90;52.80;;;;;;6067113;23;20162;-91
2022/03/14 03:19:42;;;;;;;16.60;8.43;;;2.80;52.70;;;;;;6067022;23;20161;-91
2022/03/14 03:22:07;;;;;;;12.37;8.43;;;2.90;52.60;;;;;;6067131;23;20189;-91
2022/03/14 03:24:33;;;;;;;21.63;8.77;;;2.80;52.50;;;;;;6067065;23;20189;-91
2022/03/14 03:26:58;;;;;;;15.33;8.27;;;2.80;52.30;;;;;;6067421;23;20595;-91
2022/03/14 03:29:25;;;;;;;14.73;8.37;;;2.80;52.20;;;;;;6067102;23;20185;-91
2022/03/14 03:31:50;;;;;;;14.83;7.67;;;2.80;52.00;;;;;;6068576;23;20221;-91
2022/03/14 03:34:16;;;;;;;15.53;8.03;;;2.80;51.60;;;;;;6068381;23;20194;-91
2022/03/14 03:36:42;;;;;;;13.73;8.23;;;2.90;51.30;;;;;;6067313;23;20645;-91
2022/03/14 03:39:07;;;;;;;16.30;8.37;;;2.90;51.90;;;;;;6066791;23;20163;-91
2022/03/14 03:41:33;;;;;;;16.17;8.50;;;2.90;52.10;;;;;;6066763;23;20166;-91
2022/03/14 03:43:59;;;;;;;12.57;7.60;;;2.80;52.40;;;;;;6068139;23;20210;-91
2022/03/14 03:46:24;;;;;;;13.43;8.70;;;2.80;53.00;;;;;;6066922;23;20165;-91
2022/03/14 03:48:50;;;;;;;14.77;8.47;;;2.80;53.60;;;;;;6068644;23;20181;-91
2022/03/14 03:51:15;;;;;;;13.27;7.70;;;2.70;54.40;;;;;;6066896;23;20158;-91
2022/03/14 03:53:41;;;;;;;12.73;8.50;;;2.60;53.90;;;;;;6067922;23;20178;-91
2022/03/14 03:56:06;;;;;;;17.77;8.40;;;2.60;53.80;;;;;;6066685;23;20204;-91
2022/03/14 03:58:32;;;;;;;11.67;7.47;;;2.50;54.00;;;;;;6066746;23;20196;-91
2022/03/14 04:00:57;;;;;;;14.90;8.53;;;2.50;54.00;;;;;;6067200;23;20157;-91
2022/03/14 04:03:23;;;;;;;14.33;8.30;;;2.40;54.40;;;;;;6066676;23;20582;-91
2022/03/14 04:05:49;;;;;;;16.40;8.37;;;2.50;54.40;;;;;;6066849;23;20169;-91
2022/03/14 04:08:16;;;;;;;12.83;8.23;;;2.60;53.90;;;;;;6066727;23;20600;-91
2022/03/14 04:10:43;;;;;;;14.00;8.23;;;2.60;52.90;;;;;;6068942;23;20149;-91
2022/03/14 04:13:12;;;;;;;16.23;9.03;;;2.70;52.50;;;;;;6066716;23;20185;-91
2022/03/14 04:15:51;;;;;;;16.43;8.50;;;2.80;52.10;;;;;;6066626;23;20162;-91
2022/03/14 04:18:24;;;;;;;12.77;8.53;;;2.90;52.20;;;;;;6068967;23;20134;-91
2022/03/14 04:20:50;;;;;;;11.93;7.87;;;3.00;52.10;;;;;;6068302;23;20166;-91
2022/03/14 04:23:17;;;;;;;16.83;8.63;;;3.00;52.50;;;;;;6068117;23;20165;-91
2022/03/14 04:25:44;;;;;;;17.20;8.10;;;2.90;52.50;;;;;;6066687;23;20166;-91
2022/03/14 04:28:10;;;;;;;13.43;8.13;;;3.00;52.30;;;;;;6067064;23;20157;-91
2022/03/14 04:30:36;;;;;;;14.23;8.57;;;3.00;52.40;;;;;;6066984;23;20673;-91
2022/03/14 04:33:02;;;;;;;14.87;8.20;;;2.90;52.30;;;;;;6066671;23;20202;-91
2022/03/14 04:35:28;;;;;;;15.50;9.27;;;2.80;52.50;;;;;;6066517;23;20165;-91
2022/03/14 04:37:54;;;;;;;14.20;9.03;;;2.80;53.00;;;;;;6066660;23;20159;-91
2022/03/14 04:40:20;;;;;;;12.93;8.07;;;2.70;53.60;;;;;;6067025;23;20241;-91
2022/03/14 04:42:45;;;;;;;23.33;9.37;;;2.60;53.90;;;;;;6067822;23;20152;-91
2022/03/14 04:45:11;;;;;;;11.83;8.53;;;2.30;54.60;;;;;;6066494;23;20177;-91
2022/03/14 04:47:37;;;;;;;19.70;8.83;;;2.10;55.30;;;;;;6066552;23;20545;-91
2022/03/14 04:50:04;;;;;;;15.53;8.63;;;2.10;55.60;;;;;;6067557;23;20175;-91
2022/03/14 04:52:29;;;;;;;14.13;8.70;;;2.10;55.80;;;;;;6066431;23;20611;-92
2022/03/14 04:54:56;;;;;;;14.07;8.63;;;2.10;56.00;;;;;;6066876;23;20187;-91
2022/03/14 04:57:22;;;;;;;14.17;8.30;;;2.10;56.10;;;;;;6066577;23;20166;-91
2022/03/14 04:59:48;;;;;;;12.93;8.13;;;2.10;56.10;;;;;;6066632;23;20167;-91
2022/03/14 05:02:13;;;;;;;14.23;8.63;;;2.10;56.10;;;;;;6066519;23;20164;-91
2022/03/14 05:04:39;;;;;;;15.73;9.03;;;2.00;56.40;;;;;;6067101;23;20217;-91
2022/03/14 05:07:07;;;;;;;13.60;8.77;;;1.90;56.60;;;;;;6068296;23;20495;-91
2022/03/14 05:09:33;;;;;;;15.00;9.47;;;1.70;56.90;;;;;;6068694;23;20167;-91
2022/03/14 05:11:59;;;;;;;14.73;8.20;;;1.80;56.80;;;;;;6068487;23;20233;-91
2022/03/14 05:14:24;;;;;;;14.00;9.40;;;1.60;57.00;;;;;;6068585;23;20684;-91
2022/03/14 05:16:50;;;;;;;19.90;9.50;;;1.40;58.00;;;;;;6069852;23;20155;-91
2022/03/14 05:19:15;;;;;;;17.17;9.63;;;1.30;58.40;;;;;;6068274;23;20155;-91
2022/03/14 05:21:41;;;;;;;14.33;9.30;;;1.30;58.90;;;;;;6068477;23;20193;-92
2022/03/14 05:24:08;;;;;;;17.13;8.93;;;1.30;59.10;;;;;;6068001;23;20281;-91
2022/03/14 05:26:34;;;;;;;19.17;9.80;;;1.30;58.90;;;;;;6068618;23;20159;-91
2022/03/14 05:28:59;;;;;;;15.13;9.30;;;1.30;58.80;;;;;;6068384;23;20165;-91
2022/03/14 05:31:25;;;;;;;15.77;9.67;;;1.30;59.00;;;;;;6068517;23;20183;-91
2022/03/14 05:33:50;;;;;;;14.97;9.33;;;1.30;59.10;;;;;;6068210;23;20185;-91
2022/03/14 05:36:16;;;;;;;14.47;9.63;;;1.30;58.80;;;;;;6068935;23;20159;-91
2022/03/14 05:38:42;;;;;;;16.30;8.83;;;1.30;58.60;;;;;;6069707;23;20153;-91
2022/03/14 05:41:07;;;;;;;13.10;9.57;;;1.40;58.70;;;;;;6067910;23;20248;-91
2022/03/14 05:43:37;;;;;;;16.43;9.27;;;1.30;59.10;;;;;;6067729;23;20206;-91
2022/03/14 05:46:09;;;;;;;13.90;8.63;;;1.30;59.40;;;;;;6068145;23;20161;-90
2022/03/14 05:48:35;;;;;;;15.17;8.97;;;1.30;59.40;;;;;;6068118;23;20166;-91
2022/03/14 05:51:03;;;;;;;17.07;9.60;;;1.30;59.20;;;;;;6068074;23;20160;-91
2022/03/14 05:53:30;;;;;;;17.03;8.60;;;1.30;59.50;;;;;;6067884;23;20178;-91
2022/03/14 05:55:56;;;;;;;19.60;10.30;;;1.50;59.10;;;;;;6070094;23;20151;-91
2022/03/14 05:58:22;;;;;;;14.33;8.90;;;1.50;58.90;;;;;;6067918;23;20743;-91
2022/03/14 06:00:48;;;;;;;18.43;10.27;;;1.60;58.80;;;;;;6068004;23;20195;-91
2022/03/14 06:03:14;;;;;;;18.23;9.47;;;1.60;58.70;;;;;;6069335;23;20544;-91
2022/03/14 06:05:40;;;;;;;20.10;9.27;;;1.70;58.60;;;;;;6068085;23;20234;-91
2022/03/14 06:08:06;;;;;;;21.13;9.90;;;1.80;58.60;;;;;;6067879;23;20163;-91
2022/03/14 06:10:32;;;;;;;17.13;8.80;;;1.80;58.70;;;;;;6069252;23;20492;-91
2022/03/14 06:12:58;;;;;;;15.90;9.73;;;1.80;58.30;;;;;;6067765;23;20183;-91
2022/03/14 06:15:24;;;;;;;19.83;9.40;;;1.80;58.80;;;;;;6069221;23;20172;-91
2022/03/14 06:17:49;;;;;;;17.57;9.07;;;1.80;58.80;;;;;;6067483;23;20168;-91
2022/03/14 06:20:15;;;;;;;15.00;9.80;;;1.90;58.70;;;;;;6067989;23;20157;-91
2022/03/14 06:22:48;;;;;;;14.93;10.13;;;1.90;58.70;;;;;;6067617;23;20174;-91
2022/03/14 06:25:17;;;;;;;18.60;9.83;;;1.90;58.10;;;;;;6067658;23;20571;-91
2022/03/14 06:27:43;;;;;;;16.43;9.77;;;2.00;57.60;;;;;;6067662;23;20175;-91
2022/03/14 06:30:09;;;;;;;17.90;9.60;;;2.00;57.80;;;;;;6067739;23;20242;-91
2022/03/14 06:32:39;;;;;;;20.93;10.20;;;2.10;56.70;;;;;;6067625;23;20159;-91
2022/03/14 06:35:07;;;;;;;19.70;8.90;;;2.20;56.50;;;;;;6067634;23;20158;-90
2022/03/14 06:37:33;;;;;;;22.23;9.80;;;2.30;56.00;;;;;;6069045;23;20179;-91
2022/03/14 06:39:59;;;;;;;15.17;9.07;;;2.40;58.00;;;;;;6067503;23;20162;-90
2022/03/14 06:42:25;;;;;;;16.57;10.13;;;2.60;57.70;;;;;;6068975;23;20159;-91
2022/03/14 06:44:50;;;;;;;20.83;9.27;;;2.70;57.60;;;;;;6067519;23;20201;-91
2022/03/14 06:47:17;;;;;;;19.43;9.83;;;2.80;57.30;;;;;;6067489;23;20155;-91
2022/03/14 06:49:44;;;;;;;22.97;9.73;;;2.90;57.60;;;;;;6067440;23;20160;-91
2022/03/14 06:52:12;;;;;;;18.33;10.20;;;3.00;57.50;;;;;;6068375;23;20158;-91
2022/03/14 06:54:38;;;;;;;29.10;10.07;;;3.00;57.20;;;;;;6067322;23;20233;-91
2022/03/14 06:57:06;;;;;;;19.33;9.43;;;3.10;56.50;;;;;;6069137;23;20151;-91
2022/03/14 06:59:32;;;;;;;18.83;10.20;;;3.00;54.90;;;;;;6068255;23;20534;-91
2022/03/14 07:01:57;;;;;;;16.03;10.40;;;3.10;55.40;;;;;;6067387;23;20166;-91
2022/03/14 07:04:23;;;;;;;22.90;10.40;;;3.10;55.50;;;;;;6068671;23;20203;-91
2022/03/14 07:06:48;;;;;;;16.30;9.60;;;3.10;55.50;;;;;;6067186;23;20162;-91
2022/03/14 07:09:14;;;;;;;15.87;10.00;;;3.10;55.10;;;;;;6068572;23;20168;-91
2022/03/14 07:11:40;;;;;;;16.33;10.97;;;3.20;56.10;;;;;;6067165;23;20162;-91
2022/03/14 07:14:06;;;;;;;17.67;10.70;;;3.20;56.50;;;;;;6068588;23;20522;-91
2022/03/14 07:16:31;;;;;;;14.30;9.53;;;3.30;56.60;;;;;;6068639;23;20525;-91
2022/03/14 07:18:57;;;;;;;22.73;10.03;;;3.30;56.50;;;;;;6067205;23;20166;-91
2022/03/14 07:21:28;;;;;;;20.40;10.97;;;3.40;56.30;;;;;;6067072;23;20170;-91
2022/03/14 07:23:56;;;;;;;17.13;10.30;;;3.60;56.40;;;;;;6066946;23;20184;-91
2022/03/14 07:26:22;;;;;;;15.73;10.43;;;3.70;55.40;;;;;;6068659;23;20223;-91
2022/03/14 07:28:48;;;;;;;21.90;9.67;;;3.60;54.40;;;;;;6068454;23;20146;-91
2022/03/14 07:31:15;;;;;;;15.87;9.83;;;3.70;55.50;;;;;;6066943;23;20246;-91
2022/03/14 07:33:43;;;;;;;17.00;9.43;;;3.90;55.40;;;;;;6067010;23;20186;-91
2022/03/14 07:36:09;;;;;;;19.50;10.00;;;4.10;55.20;;;;;;6067051;23;20167;-91
2022/03/14 07:38:35;;;;;;;19.30;9.83;;;4.30;55.80;;;;;;6068008;23;20167;-91
2022/03/14 07:41:00;;;;;;;18.93;10.07;;;4.40;54.70;;;;;;6066918;23;20611;-91
2022/03/14 07:43:26;;;;;;;22.97;11.20;;;4.50;53.50;;;;;;6066711;23;20191;-91
2022/03/14 07:45:51;;;;;;;18.27;9.53;;;4.60;52.90;;;;;;6066813;23;20159;-91
2022/03/14 07:48:17;;;;;;;21.73;10.40;;;4.80;50.90;;;;;;6066972;23;20162;-91
2022/03/14 07:50:43;;;;;;;18.70;9.93;;;4.80;51.00;;;;;;6066922;23;20159;-91
2022/03/14 07:53:09;;;;;;;17.30;10.80;;;4.80;49.80;;;;;;6066837;23;20172;-91
2022/03/14 07:55:34;;;;;;;17.47;9.90;;;4.80;50.50;;;;;;6068648;23;20147;-91
2022/03/14 07:58:00;;;;;;;16.60;10.43;;;4.90;49.80;;;;;;6066797;23;20234;-92
2022/03/14 08:00:25;;;;;;;15.83;9.93;;;4.90;51.50;;;;;;6066762;23;20162;-91
2022/03/14 08:02:51;;;;;;;17.83;8.97;;;4.90;50.50;;;;;;6066801;23;20156;-91
2022/03/14 08:05:19;;;;;;;14.67;9.70;;;4.90;50.70;;;;;;6067179;23;20576;-91
2022/03/14 08:07:47;;;;;;;17.20;8.77;;;4.90;49.80;;;;;;6066693;23;20190;-91
2022/03/14 08:10:16;;;;;;;19.80;9.73;;;5.00;50.10;;;;;;6066899;23;20155;-91
2022/03/14 08:12:46;;;;;;;14.77;9.47;;;5.10;48.50;;;;;;6067161;23;20232;-91
2022/03/14 08:15:27;;;;;;;14.07;9.20;;;5.10;49.90;;;;;;6067703;23;20230;-91
2022/03/14 08:17:58;;;;;;;14.40;9.40;;;5.00;50.70;;;;;;6068210;23;20139;-92
2022/03/14 08:20:26;;;;;;;20.50;9.23;;;5.00;50.20;;;;;;6068811;23;20144;-91
2022/03/14 08:22:53;;;;;;;17.10;9.17;;;5.10;49.40;;;;;;6066710;23;20164;-89
2022/03/14 08:25:19;;;;;;;17.10;9.43;;;5.10;50.20;;;;;;6066724;23;20583;-89
2022/03/14 08:27:46;;;;;;;19.27;9.70;;;5.20;51.00;;;;;;6066752;23;20160;-90
2022/03/14 08:30:12;;;;;;;13.70;8.93;;;5.30;50.20;;;;;;6068342;23;20533;-92
2022/03/14 08:32:41;;;;;;;15.27;9.37;;;5.30;49.60;;;;;;6066636;23;20151;-91
2022/03/14 08:35:09;;;;;;;14.13;9.20;;;5.40;49.20;;;;;;6066630;23;20197;-91
2022/03/14 08:37:36;;;;;;;14.80;10.03;;;5.50;48.20;;;;;;6067638;23;20596;-92
2022/03/14 08:40:06;;;;;;;15.93;9.40;;;5.50;48.80;;;;;;6068738;23;20184;-92
2022/03/14 08:42:32;;;;;;;17.10;10.17;;;5.60;48.50;;;;;;6068741;23;20227;-91
2022/03/14 08:44:57;;;;;;;15.47;9.87;;;5.50;48.40;;;;;;6050143;23;20589;-88
2022/03/14 08:47:24;;;;;;;15.33;10.17;;;5.60;48.90;;;;;;6071126;23;20183;-87
2022/03/14 08:49:50;;;;;;;13.43;9.80;;;5.60;49.50;;;;;;6045498;23;20165;-88
2022/03/14 08:52:15;;;;;;;16.80;9.37;;;5.70;50.50;;;;;;6045468;23;20567;-87
2022/03/14 08:54:41;;;;;;;19.00;9.57;;;5.70;50.00;;;;;;6045011;23;20263;-88
2022/03/14 08:57:07;;;;;;;24.13;10.40;;;5.80;49.60;;;;;;6045270;23;20557;-87
2022/03/14 08:59:32;;;;;;;17.77;9.90;;;5.90;50.50;;;;;;6045292;23;20248;-88
2022/03/14 09:01:58;;;;;;;17.10;9.77;;;5.90;50.90;;;;;;6070862;23;20186;-87
2022/03/14 09:04:23;;;;;;;16.03;9.97;;;6.10;49.80;;;;;;6070936;23;20658;-87
2022/03/14 09:06:49;;;;;;;15.23;9.23;;;6.00;49.00;;;;;;6045168;23;20192;-88
2022/03/14 09:09:14;;;;;;;16.83;10.57;;;6.10;50.20;;;;;;6045692;23;20501;-88
2022/03/14 09:11:40;;;;;;;12.37;9.27;;;6.30;49.70;;;;;;6045223;23;20211;-88
2022/03/14 09:14:05;;;;;;;15.27;9.97;;;6.30;49.90;;;;;;6045325;23;20181;-86
2022/03/14 09:16:32;;;;;;;19.03;9.90;;;6.40;50.80;;;;;;6045115;23;20611;-88
2022/03/14 09:18:57;;;;;;;15.27;9.57;;;6.40;49.40;;;;;;6070373;23;20214;-87
2022/03/14 09:21:24;;;;;;;18.83;10.17;;;6.60;50.10;;;;;;6045184;23;20167;-87
2022/03/14 09:23:50;;;;;;;21.53;10.03;;;6.60;50.80;;;;;;6070291;23;20182;-88
2022/03/14 09:26:15;;;;;;;15.40;10.13;;;6.80;50.50;;;;;;6070186;23;20158;-89
2022/03/14 09:28:44;;;;;;;16.47;9.53;;;6.80;50.00;;;;;;6044874;23;20236;-88
2022/03/14 09:31:14;;;;;;;18.47;9.90;;;6.90;49.10;;;;;;6044946;23;20178;-87
2022/03/14 09:33:40;;;;;;;15.33;10.53;;;7.00;49.90;;;;;;6044981;23;20694;-87
2022/03/14 09:36:06;;;;;;;18.50;9.67;;;7.20;51.50;;;;;;6044688;23;20162;-88
2022/03/14 09:38:32;;;;;;;15.60;9.07;;;7.30;50.50;;;;;;6045178;23;20209;-87
2022/03/14 09:41:03;;;;;;;16.03;9.93;;;7.40;50.30;;;;;;6044785;23;20159;-88
2022/03/14 09:43:30;;;;;;;14.50;10.07;;;7.60;48.80;;;;;;6045753;23;20211;-88
2022/03/14 09:45:56;;;;;;;17.80;10.47;;;7.80;49.70;;;;;;6068830;23;20486;-87
2022/03/14 09:48:23;;;;;;;18.10;10.07;;;7.90;48.90;;;;;;6070577;23;20158;-88
2022/03/14 09:50:50;;;;;;;16.10;10.10;;;7.90;48.90;;;;;;6068212;23;20160;-88
2022/03/14 09:53:17;;;;;;;16.90;9.10;;;8.10;49.70;;;;;;6069922;23;20175;-88
2022/03/14 09:55:45;;;;;;;16.93;9.70;;;8.00;49.90;;;;;;6068902;23;20156;-87
2022/03/14 09:58:13;;;;;;;16.80;9.83;;;8.00;49.90;;;;;;6069040;23;20159;-87
2022/03/14 10:00:39;;;;;;;19.53;9.97;;;7.80;52.40;;;;;;6069024;23;20227;-88
2022/03/14 10:03:05;;;;;;;13.50;8.77;;;7.90;52.00;;;;;;6069013;23;20183;-87
2022/03/14 10:05:31;;;;;;;16.33;9.83;;;7.80;51.40;;;;;;6068447;23;20191;-89
2022/03/14 10:07:57;;;;;;;17.50;10.77;;;8.00;51.00;;;;;;6067997;23;20386;-89
2022/03/14 10:10:22;;;;;;;15.40;10.50;;;8.10;51.20;;;;;;6068438;23;20616;-89
2022/03/14 10:12:52;;;;;;;16.73;10.10;;;8.00;51.70;;;;;;6068135;23;20207;-90
2022/03/14 10:15:19;;;;;;;16.47;9.80;;;8.00;52.30;;;;;;6069376;23;20172;-89
2022/03/14 10:17:45;;;;;;;18.30;10.27;;;8.10;52.70;;;;;;6068272;23;20155;-89
2022/03/14 10:20:14;;;;;;;17.40;9.60;;;8.30;52.90;;;;;;6067767;23;20194;-89
2022/03/14 10:22:41;;;;;;;15.63;9.40;;;8.40;52.60;;;;;;6067701;23;20159;-89
2022/03/14 10:25:13;;;;;;;15.73;9.00;;;8.40;52.40;;;;;;6067466;23;20191;-89
2022/03/14 10:27:40;;;;;;;16.03;9.53;;;8.40;52.70;;;;;;6069341;23;20146;-89
2022/03/14 10:30:20;;;;;;;14.70;9.93;;;8.40;53.20;;;;;;6068127;23;20167;-90
2022/03/14 10:32:48;;;;;;;15.73;10.17;;;8.40;53.20;;;;;;6069722;23;20152;-86
2022/03/14 10:35:20;;;;;;;18.47;9.13;;;8.50;53.70;;;;;;6068431;23;20205;-86
2022/03/14 10:38:01;;;;;;;16.63;10.03;;;8.60;53.20;;;;;;6068428;23;20140;-87
2022/03/14 10:40:31;;;;;;;17.90;8.97;;;8.70;53.30;;;;;;6069980;23;20136;-86
2022/03/14 10:42:57;;;;;;;17.50;10.27;;;8.80;53.40;;;;;;6069991;23;20158;-87
2022/03/14 10:45:23;;;;;;;16.77;9.53;;;8.80;54.50;;;;;;6070148;23;20219;-86
2022/03/14 10:47:54;;;;;;;18.33;10.40;;;8.60;54.80;;;;;;6069897;23;20532;-86
2022/03/14 10:50:31;;;;;;;15.60;10.23;;;8.50;55.50;;;;;;6068203;23;20155;-86
2022/03/14 10:53:17;;;;;;;13.33;10.27;;;8.40;56.10;;;;;;6068607;23;20159;-87
2022/03/14 10:55:45;;;;;;;16.60;10.90;;;8.60;56.10;;;;;;6043837;23;20169;-87
2022/03/14 10:58:19;;;;;;;14.60;10.63;;;8.60;55.50;;;;;;6069944;23;20243;-87
2022/03/14 11:00:56;;;;;;;17.83;10.70;;;8.70;55.80;;;;;;6070021;23;20309;-87
2022/03/14 11:03:26;;;;;;;18.50;10.60;;;8.80;55.50;;;;;;6069100;23;20171;-88
2022/03/14 11:05:53;;;;;;;19.83;13.17;;;8.80;55.40;;;;;;6069285;23;20205;-87
2022/03/14 11:08:35;;;;;;;25.80;14.10;;;8.80;55.70;;;;;;6070109;23;20512;-87
2022/03/14 11:11:09;;;;;;;22.47;14.63;;;8.80;56.20;;;;;;6070165;23;20151;-87
2022/03/14 11:13:42;;;;;;;32.50;13.73;;;8.70;55.60;;;;;;6068302;23;20175;-86
2022/03/14 11:16:34;;;;;;;17.10;11.10;;;8.70;56.50;;;;;;6068887;23;20156;-87
2022/03/14 11:19:00;;;;;;;17.93;10.30;;;8.70;56.60;;;;;;6071162;23;20210;-88
2022/03/14 11:21:27;;;;;;;15.43;10.40;;;8.80;57.00;;;;;;6071888;23;20200;-88
2022/03/14 11:23:54;;;;;;;18.97;10.77;;;8.80;56.40;;;;;;6067795;23;20270;-88
2022/03/14 11:26:23;;;;;;;21.27;10.87;;;8.80;57.10;;;;;;6068995;23;20219;-87
2022/03/14 11:28:50;;;;;;;20.77;10.10;;;8.80;57.00;;;;;;6068471;23;20191;-85
2022/03/14 11:31:19;;;;;;;16.27;10.50;;;8.80;56.80;;;;;;6069899;23;20212;-85
2022/03/14 11:33:46;;;;;;;14.63;10.40;;;8.80;56.90;;;;;;6068865;23;20192;-87
2022/03/14 11:36:12;;;;;;;21.53;10.20;;;8.80;57.30;;;;;;6069357;23;20627;-87
2022/03/14 11:38:38;;;;;;;18.53;10.70;;;8.90;57.10;;;;;;6069764;23;20492;-88
2022/03/14 11:41:04;;;;;;;15.50;9.87;;;9.00;57.50;;;;;;6067808;23;20160;-89
2022/03/14 11:43:30;;;;;;;12.47;9.73;;;8.90;57.20;;;;;;6067391;23;20722;-88
2022/03/14 11:45:59;;;;;;;13.43;9.97;;;9.00;57.00;;;;;;6069446;23;20210;-88
2022/03/14 11:48:30;;;;;;;15.50;9.83;;;9.00;57.70;;;;;;6067930;23;20234;-87
2022/03/14 11:51:02;;;;;;;13.40;10.03;;;9.10;57.90;;;;;;6068000;23;20520;-87
2022/03/14 11:53:33;;;;;;;14.57;9.40;;;9.10;58.00;;;;;;6069305;23;20540;-87
2022/03/14 11:56:02;;;;;;;20.43;10.13;;;9.10;58.20;;;;;;6068279;23;20222;-87
2022/03/14 11:58:42;;;;;;;17.70;10.40;;;9.10;58.80;;;;;;6068557;23;20166;-87
2022/03/14 12:01:20;;;;;;;14.43;9.93;;;9.30;58.70;;;;;;6068298;23;20179;-87
2022/03/14 12:03:50;;;;;;;26.53;10.30;;;9.30;58.70;;;;;;6069608;23;20250;-87
2022/03/14 12:06:17;;;;;;;20.37;10.30;;;9.40;59.00;;;;;;6068536;23;20151;-87
2022/03/14 12:08:45;;;;;;;13.33;10.00;;;9.50;59.10;;;;;;6067848;23;20596;-87
2022/03/14 12:11:26;;;;;;;12.80;9.70;;;9.60;59.20;;;;;;6067998;23;20155;-87
2022/03/14 12:13:52;;;;;;;13.90;9.57;;;9.80;61.60;;;;;;6067609;23;20187;-87
2022/03/14 12:16:37;;;;;;;11.20;8.53;;;9.80;62.50;;;;;;6067956;23;20267;-87
2022/03/14 12:19:25;;;;;;;15.83;10.30;;;10.00;63.30;;;;;;6069784;23;20532;-87
2022/03/14 12:21:54;;;;;;;13.47;10.10;;;10.20;64.20;;;;;;6073060;23;20250;-88
2022/03/14 12:24:35;;;;;;;14.27;9.57;;;10.20;63.50;;;;;;6072162;23;20659;-87
2022/03/14 12:27:02;;;;;;;12.93;9.90;;;10.30;63.70;;;;;;6071901;23;20159;-88
2022/03/14 12:29:37;;;;;;;14.57;9.97;;;10.30;64.10;;;;;;6071523;23;20631;-88
2022/03/14 12:32:22;;;;;;;11.73;9.13;;;10.40;65.50;;;;;;6072755;23;20490;-86
2022/03/14 12:35:01;;;;;;;12.57;10.07;;;10.50;70.70;;;;;;6071960;23;20516;-88
2022/03/14 12:37:43;;;;;;;9.77;8.77;;;10.60;69.40;;;;;;6072956;23;20156;-87
2022/03/14 12:40:21;;;;;;;13.10;8.40;;;10.70;70.30;;;;;;6072783;23;20207;-89
2022/03/14 12:42:51;;;;;;;11.37;8.53;;;10.70;71.70;;;;;;6070629;23;20147;-87
2022/03/14 12:45:26;;;;;;;11.43;9.47;;;10.80;71.50;;;;;;6070555;23;20605;-88